sensor_id;sensor_type;location;lat;lon;timestamp;P1;durP1;ratioP1;P2;durP2;ratioP2
53867;SDS011;41577;47.470;19.080;2022-08-25T00:00:01;8.57;;;4.45;;
53867;SDS011;41577;47.470;19.080;2022-08-25T00:00:18;8.70;;;4.63;;
53867;SDS011;41577;47.470;19.080;2022-08-25T00:00:32;7.57;;;4.35;;
53867;SDS011;41577;47.470;19.080;2022-08-25T00:00:47;7.80;;;4.32;;
53867;SDS011;41577;47.470;19.080;2022-08-25T00:01:07;12.65;;;4.93;;
53867;SDS011;41577;47.470;19.080;2022-08-25T00:01:25;9.23;;;4.72;;
53867;SDS011;41577;47.470;19.080;2022-08-25T00:01:43;8.80;;;4.68;;
53867;SDS011;41577;47.470;19.080;2022-08-25T00:02:01;7.95;;;4.38;;
53867;SDS011;41577;47.470;19.080;2022-08-25T00:02:18;8.95;;;4.32;;
53867;SDS011;41577;47.470;19.080;2022-08-25T00:02:34;11.07;;;4.63;;
53867;SDS011;41577;47.470;19.080;2022-08-25T00:02:50;12.57;;;4.80;;
53867;SDS011;41577;47.470;19.080;2022-08-25T00:03:07;10.07;;;4.68;;
53867;SDS011;41577;47.470;19.080;2022-08-25T00:03:23;12.63;;;4.50;;
53867;SDS011;41577;47.470;19.080;2022-08-25T00:03:37;10.98;;;4.35;;
53867;SDS011;41577;47.470;19.080;2022-08-25T00:03:51;10.65;;;4.75;;
53867;SDS011;41577;47.470;19.080;2022-08-25T00:04:08;12.45;;;5.10;;
53867;SDS011;41577;47.470;19.080;2022-08-25T00:04:24;10.10;;;5.20;;
53867;SDS011;41577;47.470;19.080;2022-08-25T00:04:39;11.63;;;5.13;;
53867;SDS011;41577;47.470;19.080;2022-08-25T00:04:53;17.30;;;4.80;;
53867;SDS011;41577;47.470;19.080;2022-08-25T00:05:07;13.63;;;4.57;;
53867;SDS011;41577;47.470;19.080;2022-08-25T00:05:25;8.57;;;4.00;;
53867;SDS011;41577;47.470;19.080;2022-08-25T00:05:41;10.07;;;3.97;;
53867;SDS011;41577;47.470;19.080;2022-08-25T00:05:55;10.57;;;4.05;;
53867;SDS011;41577;47.470;19.080;2022-08-25T00:06:10;10.57;;;4.03;;
53867;SDS011;41577;47.470;19.080;2022-08-25T00:06:25;15.18;;;4.22;;
53867;SDS011;41577;47.470;19.080;2022-08-25T00:06:40;15.88;;;4.65;;
53867;SDS011;41577;47.470;19.080;2022-08-25T00:06:56;15.75;;;4.60;;
53867;SDS011;41577;47.470;19.080;2022-08-25T00:07:10;14.63;;;4.65;;
53867;SDS011;41577;47.470;19.080;2022-08-25T00:07:24;9.73;;;4.68;;
53867;SDS011;41577;47.470;19.080;2022-08-25T00:07:41;13.45;;;4.85;;
53867;SDS011;41577;47.470;19.080;2022-08-25T00:07:55;15.77;;;5.50;;
53867;SDS011;41577;47.470;19.080;2022-08-25T00:08:09;11.02;;;5.35;;
53867;SDS011;41577;47.470;19.080;2022-08-25T00:08:24;8.27;;;4.80;;
53867;SDS011;41577;47.470;19.080;2022-08-25T00:08:39;11.07;;;5.10;;
53867;SDS011;41577;47.470;19.080;2022-08-25T00:08:54;11.65;;;4.97;;
53867;SDS011;41577;47.470;19.080;2022-08-25T00:09:13;10.60;;;4.60;;
53867;SDS011;41577;47.470;19.080;2022-08-25T00:09:32;10.63;;;5.15;;
53867;SDS011;41577;47.470;19.080;2022-08-25T00:09:47;10.25;;;4.78;;
53867;SDS011;41577;47.470;19.080;2022-08-25T00:10:03;9.52;;;4.20;;
53867;SDS011;41577;47.470;19.080;2022-08-25T00:10:17;8.82;;;4.38;;
53867;SDS011;41577;47.470;19.080;2022-08-25T00:10:32;9.23;;;4.57;;
53867;SDS011;41577;47.470;19.080;2022-08-25T00:10:48;8.45;;;4.28;;
53867;SDS011;41577;47.470;19.080;2022-08-25T00:11:03;7.28;;;4.25;;
53867;SDS011;41577;47.470;19.080;2022-08-25T00:11:20;9.25;;;4.35;;
53867;SDS011;41577;47.470;19.080;2022-08-25T00:11:37;10.70;;;4.47;;
53867;SDS011;41577;47.470;19.080;2022-08-25T00:11:52;7.50;;;4.47;;
53867;SDS011;41577;47.470;19.080;2022-08-25T00:12:08;9.88;;;4.70;;
53867;SDS011;41577;47.470;19.080;2022-08-25T00:12:22;14.85;;;4.90;;
53867;SDS011;41577;47.470;19.080;2022-08-25T00:12:39;14.63;;;5.10;;
53867;SDS011;41577;47.470;19.080;2022-08-25T00:12:53;10.82;;;5.10;;
53867;SDS011;41577;47.470;19.080;2022-08-25T00:13:07;13.95;;;5.18;;
53867;SDS011;41577;47.470;19.080;2022-08-25T00:13:23;16.10;;;5.30;;
53867;SDS011;41577;47.470;19.080;2022-08-25T00:13:40;10.70;;;4.63;;
53867;SDS011;41577;47.470;19.080;2022-08-25T00:13:57;8.07;;;4.20;;
53867;SDS011;41577;47.470;19.080;2022-08-25T00:14:14;8.60;;;4.22;;
53867;SDS011;41577;47.470;19.080;2022-08-25T00:14:32;9.77;;;4.85;;
53867;SDS011;41577;47.470;19.080;2022-08-25T00:14:49;9.27;;;5.13;;
53867;SDS011;41577;47.470;19.080;2022-08-25T00:15:06;10.27;;;5.15;;
53867;SDS011;41577;47.470;19.080;2022-08-25T00:15:22;8.75;;;4.57;;
53867;SDS011;41577;47.470;19.080;2022-08-25T00:15:37;9.60;;;4.47;;
53867;SDS011;41577;47.470;19.080;2022-08-25T00:15:51;10.83;;;4.67;;
53867;SDS011;41577;47.470;19.080;2022-08-25T00:16:08;10.85;;;4.55;;
53867;SDS011;41577;47.470;19.080;2022-08-25T00:16:22;12.07;;;4.30;;
53867;SDS011;41577;47.470;19.080;2022-08-25T00:16:38;8.45;;;4.18;;
53867;SDS011;41577;47.470;19.080;2022-08-25T00:16:54;10.50;;;4.65;;
53867;SDS011;41577;47.470;19.080;2022-08-25T00:17:09;14.25;;;4.70;;
53867;SDS011;41577;47.470;19.080;2022-08-25T00:17:24;11.05;;;4.45;;
53867;SDS011;41577;47.470;19.080;2022-08-25T00:17:39;11.98;;;4.55;;
53867;SDS011;41577;47.470;19.080;2022-08-25T00:17:54;14.02;;;4.70;;
53867;SDS011;41577;47.470;19.080;2022-08-25T00:18:08;10.45;;;4.28;;
53867;SDS011;41577;47.470;19.080;2022-08-25T00:18:29;10.13;;;4.05;;
53867;SDS011;41577;47.470;19.080;2022-08-25T00:18:44;9.48;;;4.63;;
53867;SDS011;41577;47.470;19.080;2022-08-25T00:19:00;11.25;;;4.97;;
53867;SDS011;41577;47.470;19.080;2022-08-25T00:19:18;9.55;;;4.63;;
53867;SDS011;41577;47.470;19.080;2022-08-25T00:19:34;10.98;;;4.40;;
53867;SDS011;41577;47.470;19.080;2022-08-25T00:19:51;14.00;;;5.17;;
53867;SDS011;41577;47.470;19.080;2022-08-25T00:20:07;18.20;;;5.30;;
53867;SDS011;41577;47.470;19.080;2022-08-25T00:20:22;17.02;;;4.90;;
53867;SDS011;41577;47.470;19.080;2022-08-25T00:20:37;16.27;;;5.10;;
53867;SDS011;41577;47.470;19.080;2022-08-25T00:20:52;12.98;;;5.22;;
53867;SDS011;41577;47.470;19.080;2022-08-25T00:21:07;10.95;;;5.07;;
53867;SDS011;41577;47.470;19.080;2022-08-25T00:21:21;8.35;;;5.03;;
53867;SDS011;41577;47.470;19.080;2022-08-25T00:21:38;7.97;;;4.93;;
53867;SDS011;41577;47.470;19.080;2022-08-25T00:21:53;10.43;;;5.03;;
53867;SDS011;41577;47.470;19.080;2022-08-25T00:22:08;12.23;;;5.30;;
53867;SDS011;41577;47.470;19.080;2022-08-25T00:22:22;10.85;;;5.15;;
53867;SDS011;41577;47.470;19.080;2022-08-25T00:22:37;10.65;;;5.40;;
53867;SDS011;41577;47.470;19.080;2022-08-25T00:22:51;11.55;;;5.80;;
53867;SDS011;41577;47.470;19.080;2022-08-25T00:23:05;12.70;;;5.60;;
53867;SDS011;41577;47.470;19.080;2022-08-25T00:23:20;11.45;;;4.88;;
53867;SDS011;41577;47.470;19.080;2022-08-25T00:23:34;9.10;;;4.38;;
53867;SDS011;41577;47.470;19.080;2022-08-25T00:23:48;9.63;;;4.40;;
53867;SDS011;41577;47.470;19.080;2022-08-25T00:24:02;14.15;;;4.80;;
53867;SDS011;41577;47.470;19.080;2022-08-25T00:24:18;16.33;;;5.00;;
53867;SDS011;41577;47.470;19.080;2022-08-25T00:24:32;11.85;;;4.95;;
53867;SDS011;41577;47.470;19.080;2022-08-25T00:24:48;13.88;;;5.53;;
53867;SDS011;41577;47.470;19.080;2022-08-25T00:25:02;16.38;;;5.50;;
53867;SDS011;41577;47.470;19.080;2022-08-25T00:25:17;14.70;;;5.40;;
53867;SDS011;41577;47.470;19.080;2022-08-25T00:25:31;11.00;;;5.20;;
53867;SDS011;41577;47.470;19.080;2022-08-25T00:25:47;11.27;;;5.32;;
53867;SDS011;41577;47.470;19.080;2022-08-25T00:26:02;11.50;;;5.30;;
53867;SDS011;41577;47.470;19.080;2022-08-25T00:26:16;8.23;;;4.80;;
53867;SDS011;41577;47.470;19.080;2022-08-25T00:26:31;8.98;;;5.03;;
53867;SDS011;41577;47.470;19.080;2022-08-25T00:26:47;12.05;;;4.90;;
53867;SDS011;41577;47.470;19.080;2022-08-25T00:27:02;10.55;;;4.43;;
53867;SDS011;41577;47.470;19.080;2022-08-25T00:27:18;8.23;;;4.70;;
53867;SDS011;41577;47.470;19.080;2022-08-25T00:27:33;9.43;;;5.35;;
53867;SDS011;41577;47.470;19.080;2022-08-25T00:27:47;10.57;;;5.47;;
53867;SDS011;41577;47.470;19.080;2022-08-25T00:28:02;15.02;;;5.35;;
53867;SDS011;41577;47.470;19.080;2022-08-25T00:28:16;15.70;;;5.75;;
53867;SDS011;41577;47.470;19.080;2022-08-25T00:28:31;14.02;;;5.72;;
53867;SDS011;41577;47.470;19.080;2022-08-25T00:28:46;11.98;;;5.10;;
53867;SDS011;41577;47.470;19.080;2022-08-25T00:28:59;11.90;;;5.07;;
53867;SDS011;41577;47.470;19.080;2022-08-25T00:29:14;13.02;;;5.10;;
53867;SDS011;41577;47.470;19.080;2022-08-25T00:29:29;10.85;;;5.00;;
53867;SDS011;41577;47.470;19.080;2022-08-25T00:29:45;11.65;;;4.85;;
53867;SDS011;41577;47.470;19.080;2022-08-25T00:29:59;13.68;;;5.18;;
53867;SDS011;41577;47.470;19.080;2022-08-25T00:30:15;12.98;;;5.18;;
53867;SDS011;41577;47.470;19.080;2022-08-25T00:30:29;9.95;;;4.65;;
53867;SDS011;41577;47.470;19.080;2022-08-25T00:30:44;9.68;;;4.90;;
53867;SDS011;41577;47.470;19.080;2022-08-25T00:30:58;12.13;;;4.95;;
53867;SDS011;41577;47.470;19.080;2022-08-25T00:31:15;11.20;;;4.78;;
53867;SDS011;41577;47.470;19.080;2022-08-25T00:31:30;7.55;;;5.00;;
53867;SDS011;41577;47.470;19.080;2022-08-25T00:31:45;9.07;;;5.13;;
53867;SDS011;41577;47.470;19.080;2022-08-25T00:31:59;13.88;;;5.00;;
53867;SDS011;41577;47.470;19.080;2022-08-25T00:32:14;12.65;;;4.75;;
53867;SDS011;41577;47.470;19.080;2022-08-25T00:32:28;8.32;;;4.40;;
53867;SDS011;41577;47.470;19.080;2022-08-25T00:32:42;5.80;;;4.43;;
53867;SDS011;41577;47.470;19.080;2022-08-25T00:32:57;6.90;;;4.97;;
53867;SDS011;41577;47.470;19.080;2022-08-25T00:33:12;6.90;;;4.95;;
53867;SDS011;41577;47.470;19.080;2022-08-25T00:33:27;5.40;;;4.43;;
53867;SDS011;41577;47.470;19.080;2022-08-25T00:33:43;6.68;;;5.05;;
53867;SDS011;41577;47.470;19.080;2022-08-25T00:34:00;14.13;;;5.55;;
53867;SDS011;41577;47.470;19.080;2022-08-25T00:34:15;13.82;;;4.93;;
53867;SDS011;41577;47.470;19.080;2022-08-25T00:34:33;13.25;;;4.70;;
53867;SDS011;41577;47.470;19.080;2022-08-25T00:34:52;13.93;;;4.85;;
53867;SDS011;41577;47.470;19.080;2022-08-25T00:35:06;10.38;;;4.30;;
53867;SDS011;41577;47.470;19.080;2022-08-25T00:35:21;8.43;;;3.78;;
53867;SDS011;41577;47.470;19.080;2022-08-25T00:35:35;7.78;;;4.32;;
53867;SDS011;41577;47.470;19.080;2022-08-25T00:35:50;9.27;;;4.55;;
53867;SDS011;41577;47.470;19.080;2022-08-25T00:36:04;9.80;;;4.75;;
53867;SDS011;41577;47.470;19.080;2022-08-25T00:36:20;10.88;;;5.50;;
53867;SDS011;41577;47.470;19.080;2022-08-25T00:36:34;11.15;;;5.55;;
53867;SDS011;41577;47.470;19.080;2022-08-25T00:36:49;10.10;;;4.65;;
53867;SDS011;41577;47.470;19.080;2022-08-25T00:37:04;8.43;;;4.35;;
53867;SDS011;41577;47.470;19.080;2022-08-25T00:37:21;8.20;;;4.97;;
53867;SDS011;41577;47.470;19.080;2022-08-25T00:37:36;8.02;;;5.00;;
53867;SDS011;41577;47.470;19.080;2022-08-25T00:37:50;8.85;;;4.72;;
53867;SDS011;41577;47.470;19.080;2022-08-25T00:38:05;9.50;;;5.05;;
53867;SDS011;41577;47.470;19.080;2022-08-25T00:38:19;10.40;;;5.45;;
53867;SDS011;41577;47.470;19.080;2022-08-25T00:38:33;10.50;;;5.25;;
53867;SDS011;41577;47.470;19.080;2022-08-25T00:38:47;9.27;;;5.20;;
53867;SDS011;41577;47.470;19.080;2022-08-25T00:39:02;8.15;;;5.15;;
53867;SDS011;41577;47.470;19.080;2022-08-25T00:39:17;7.65;;;4.68;;
53867;SDS011;41577;47.470;19.080;2022-08-25T00:39:35;9.77;;;4.35;;
53867;SDS011;41577;47.470;19.080;2022-08-25T00:39:50;10.20;;;4.47;;
53867;SDS011;41577;47.470;19.080;2022-08-25T00:40:05;13.02;;;5.13;;
53867;SDS011;41577;47.470;19.080;2022-08-25T00:40:20;16.57;;;5.30;;
53867;SDS011;41577;47.470;19.080;2022-08-25T00:40:35;13.77;;;4.85;;
53867;SDS011;41577;47.470;19.080;2022-08-25T00:40:50;13.48;;;5.03;;
53867;SDS011;41577;47.470;19.080;2022-08-25T00:41:20;7.55;;;5.22;;
53867;SDS011;41577;47.470;19.080;2022-08-25T00:41:36;9.18;;;5.07;;
53867;SDS011;41577;47.470;19.080;2022-08-25T00:41:53;8.75;;;4.65;;
53867;SDS011;41577;47.470;19.080;2022-08-25T00:42:08;9.55;;;4.68;;
53867;SDS011;41577;47.470;19.080;2022-08-25T00:42:24;9.77;;;4.72;;
53867;SDS011;41577;47.470;19.080;2022-08-25T00:42:39;11.75;;;4.93;;
53867;SDS011;41577;47.470;19.080;2022-08-25T00:42:53;11.95;;;5.38;;
53867;SDS011;41577;47.470;19.080;2022-08-25T00:43:08;10.85;;;5.57;;
53867;SDS011;41577;47.470;19.080;2022-08-25T00:43:22;10.98;;;5.30;;
53867;SDS011;41577;47.470;19.080;2022-08-25T00:43:43;15.50;;;5.28;;
53867;SDS011;41577;47.470;19.080;2022-08-25T00:44:00;10.50;;;4.78;;
53867;SDS011;41577;47.470;19.080;2022-08-25T00:44:18;8.63;;;4.32;;
53867;SDS011;41577;47.470;19.080;2022-08-25T00:44:32;7.47;;;4.55;;
53867;SDS011;41577;47.470;19.080;2022-08-25T00:44:47;10.82;;;5.05;;
53867;SDS011;41577;47.470;19.080;2022-08-25T00:45:02;13.18;;;4.60;;
53867;SDS011;41577;47.470;19.080;2022-08-25T00:45:18;11.60;;;4.55;;
53867;SDS011;41577;47.470;19.080;2022-08-25T00:45:33;8.27;;;4.78;;
53867;SDS011;41577;47.470;19.080;2022-08-25T00:45:49;8.48;;;4.65;;
53867;SDS011;41577;47.470;19.080;2022-08-25T00:46:03;9.70;;;4.78;;
53867;SDS011;41577;47.470;19.080;2022-08-25T00:46:19;15.10;;;5.03;;
53867;SDS011;41577;47.470;19.080;2022-08-25T00:46:35;13.70;;;5.25;;
53867;SDS011;41577;47.470;19.080;2022-08-25T00:46:51;9.40;;;4.75;;
53867;SDS011;41577;47.470;19.080;2022-08-25T00:47:08;7.60;;;4.38;;
53867;SDS011;41577;47.470;19.080;2022-08-25T00:47:23;10.10;;;5.00;;
53867;SDS011;41577;47.470;19.080;2022-08-25T00:47:37;10.98;;;5.22;;
53867;SDS011;41577;47.470;19.080;2022-08-25T00:47:53;10.35;;;5.00;;
53867;SDS011;41577;47.470;19.080;2022-08-25T00:48:07;12.32;;;5.35;;
53867;SDS011;41577;47.470;19.080;2022-08-25T00:48:21;19.83;;;6.03;;
53867;SDS011;41577;47.470;19.080;2022-08-25T00:48:35;25.38;;;5.60;;
53867;SDS011;41577;47.470;19.080;2022-08-25T00:48:52;17.58;;;5.25;;
53867;SDS011;41577;47.470;19.080;2022-08-25T00:49:11;8.15;;;5.25;;
53867;SDS011;41577;47.470;19.080;2022-08-25T00:49:31;9.63;;;5.20;;
53867;SDS011;41577;47.470;19.080;2022-08-25T00:49:48;11.07;;;5.40;;
53867;SDS011;41577;47.470;19.080;2022-08-25T00:50:06;11.63;;;4.95;;
53867;SDS011;41577;47.470;19.080;2022-08-25T00:50:22;9.93;;;4.88;;
53867;SDS011;41577;47.470;19.080;2022-08-25T00:50:37;9.23;;;4.85;;
53867;SDS011;41577;47.470;19.080;2022-08-25T00:50:52;11.48;;;4.90;;
53867;SDS011;41577;47.470;19.080;2022-08-25T00:51:09;14.50;;;5.25;;
53867;SDS011;41577;47.470;19.080;2022-08-25T00:51:28;12.02;;;5.55;;
53867;SDS011;41577;47.470;19.080;2022-08-25T00:51:46;12.27;;;5.40;;
53867;SDS011;41577;47.470;19.080;2022-08-25T00:52:05;12.07;;;4.97;;
53867;SDS011;41577;47.470;19.080;2022-08-25T00:52:23;9.05;;;4.63;;
53867;SDS011;41577;47.470;19.080;2022-08-25T00:52:41;10.23;;;4.65;;
53867;SDS011;41577;47.470;19.080;2022-08-25T00:52:57;8.07;;;4.35;;
53867;SDS011;41577;47.470;19.080;2022-08-25T00:53:14;9.52;;;4.90;;
53867;SDS011;41577;47.470;19.080;2022-08-25T00:53:28;14.00;;;5.10;;
53867;SDS011;41577;47.470;19.080;2022-08-25T00:53:43;12.30;;;4.90;;
53867;SDS011;41577;47.470;19.080;2022-08-25T00:53:59;12.30;;;5.40;;
53867;SDS011;41577;47.470;19.080;2022-08-25T00:54:15;14.18;;;5.80;;
53867;SDS011;41577;47.470;19.080;2022-08-25T00:54:33;11.30;;;5.55;;
53867;SDS011;41577;47.470;19.080;2022-08-25T00:54:51;9.15;;;4.97;;
53867;SDS011;41577;47.470;19.080;2022-08-25T00:55:08;10.05;;;5.05;;
53867;SDS011;41577;47.470;19.080;2022-08-25T00:55:28;15.20;;;5.25;;
53867;SDS011;41577;47.470;19.080;2022-08-25T00:55:45;14.25;;;5.10;;
53867;SDS011;41577;47.470;19.080;2022-08-25T00:56:01;9.15;;;4.63;;
53867;SDS011;41577;47.470;19.080;2022-08-25T00:56:16;14.68;;;5.15;;
53867;SDS011;41577;47.470;19.080;2022-08-25T00:56:31;13.68;;;5.05;;
53867;SDS011;41577;47.470;19.080;2022-08-25T00:56:47;17.13;;;5.25;;
53867;SDS011;41577;47.470;19.080;2022-08-25T00:57:04;16.95;;;5.43;;
53867;SDS011;41577;47.470;19.080;2022-08-25T00:57:22;11.25;;;5.07;;
53867;SDS011;41577;47.470;19.080;2022-08-25T00:57:40;10.35;;;4.82;;
53867;SDS011;41577;47.470;19.080;2022-08-25T00:57:57;9.80;;;4.45;;
53867;SDS011;41577;47.470;19.080;2022-08-25T00:58:15;10.18;;;5.00;;
53867;SDS011;41577;47.470;19.080;2022-08-25T00:58:32;12.27;;;4.93;;
53867;SDS011;41577;47.470;19.080;2022-08-25T00:58:48;10.10;;;4.63;;
53867;SDS011;41577;47.470;19.080;2022-08-25T00:59:03;7.15;;;4.72;;
53867;SDS011;41577;47.470;19.080;2022-08-25T00:59:18;10.00;;;4.45;;
53867;SDS011;41577;47.470;19.080;2022-08-25T00:59:32;11.05;;;4.68;;
53867;SDS011;41577;47.470;19.080;2022-08-25T00:59:47;8.13;;;4.85;;
53867;SDS011;41577;47.470;19.080;2022-08-25T01:00:05;9.48;;;4.82;;
53867;SDS011;41577;47.470;19.080;2022-08-25T01:00:25;11.27;;;5.05;;
53867;SDS011;41577;47.470;19.080;2022-08-25T01:00:43;14.00;;;4.47;;
53867;SDS011;41577;47.470;19.080;2022-08-25T01:00:59;15.55;;;5.00;;
53867;SDS011;41577;47.470;19.080;2022-08-25T01:01:13;14.15;;;5.38;;
53867;SDS011;41577;47.470;19.080;2022-08-25T01:01:27;12.38;;;5.10;;
53867;SDS011;41577;47.470;19.080;2022-08-25T01:01:43;8.57;;;4.90;;
53867;SDS011;41577;47.470;19.080;2022-08-25T01:01:58;8.23;;;4.93;;
53867;SDS011;41577;47.470;19.080;2022-08-25T01:02:13;10.98;;;4.97;;
53867;SDS011;41577;47.470;19.080;2022-08-25T01:02:28;13.25;;;5.03;;
53867;SDS011;41577;47.470;19.080;2022-08-25T01:02:42;11.15;;;4.93;;
53867;SDS011;41577;47.470;19.080;2022-08-25T01:02:57;8.52;;;4.75;;
53867;SDS011;41577;47.470;19.080;2022-08-25T01:03:13;8.82;;;4.43;;
53867;SDS011;41577;47.470;19.080;2022-08-25T01:03:29;10.63;;;4.85;;
53867;SDS011;41577;47.470;19.080;2022-08-25T01:03:46;8.40;;;4.88;;
53867;SDS011;41577;47.470;19.080;2022-08-25T01:04:00;6.82;;;4.45;;
53867;SDS011;41577;47.470;19.080;2022-08-25T01:04:14;7.82;;;4.65;;
53867;SDS011;41577;47.470;19.080;2022-08-25T01:04:29;10.07;;;5.15;;
53867;SDS011;41577;47.470;19.080;2022-08-25T01:04:44;9.13;;;5.13;;
53867;SDS011;41577;47.470;19.080;2022-08-25T01:04:58;13.00;;;5.13;;
53867;SDS011;41577;47.470;19.080;2022-08-25T01:05:14;14.32;;;5.22;;
53867;SDS011;41577;47.470;19.080;2022-08-25T01:05:28;11.25;;;4.93;;
53867;SDS011;41577;47.470;19.080;2022-08-25T01:05:43;13.10;;;4.78;;
53867;SDS011;41577;47.470;19.080;2022-08-25T01:05:58;13.20;;;4.65;;
53867;SDS011;41577;47.470;19.080;2022-08-25T01:06:15;11.23;;;4.60;;
53867;SDS011;41577;47.470;19.080;2022-08-25T01:06:31;10.25;;;4.72;;
53867;SDS011;41577;47.470;19.080;2022-08-25T01:06:49;9.05;;;5.07;;
53867;SDS011;41577;47.470;19.080;2022-08-25T01:07:03;9.18;;;5.20;;
53867;SDS011;41577;47.470;19.080;2022-08-25T01:07:19;7.85;;;4.80;;
53867;SDS011;41577;47.470;19.080;2022-08-25T01:07:34;8.38;;;4.50;;
53867;SDS011;41577;47.470;19.080;2022-08-25T01:07:52;11.57;;;4.80;;
53867;SDS011;41577;47.470;19.080;2022-08-25T01:08:07;10.68;;;4.85;;
53867;SDS011;41577;47.470;19.080;2022-08-25T01:08:23;10.15;;;5.05;;
53867;SDS011;41577;47.470;19.080;2022-08-25T01:08:40;16.08;;;5.53;;
53867;SDS011;41577;47.470;19.080;2022-08-25T01:08:54;22.45;;;5.50;;
53867;SDS011;41577;47.470;19.080;2022-08-25T01:09:09;17.17;;;5.07;;
53867;SDS011;41577;47.470;19.080;2022-08-25T01:09:25;8.63;;;4.53;;
53867;SDS011;41577;47.470;19.080;2022-08-25T01:09:41;10.02;;;4.82;;
53867;SDS011;41577;47.470;19.080;2022-08-25T01:09:57;9.85;;;5.07;;
53867;SDS011;41577;47.470;19.080;2022-08-25T01:10:12;9.55;;;5.22;;
53867;SDS011;41577;47.470;19.080;2022-08-25T01:10:26;10.90;;;5.07;;
53867;SDS011;41577;47.470;19.080;2022-08-25T01:10:42;9.88;;;5.10;;
53867;SDS011;41577;47.470;19.080;2022-08-25T01:10:59;8.25;;;5.43;;
53867;SDS011;41577;47.470;19.080;2022-08-25T01:11:18;7.53;;;4.97;;
53867;SDS011;41577;47.470;19.080;2022-08-25T01:11:35;9.07;;;5.00;;
53867;SDS011;41577;47.470;19.080;2022-08-25T01:11:50;9.77;;;5.38;;
53867;SDS011;41577;47.470;19.080;2022-08-25T01:12:05;8.45;;;4.82;;
53867;SDS011;41577;47.470;19.080;2022-08-25T01:12:21;10.50;;;4.93;;
53867;SDS011;41577;47.470;19.080;2022-08-25T01:12:37;13.10;;;5.00;;
53867;SDS011;41577;47.470;19.080;2022-08-25T01:12:50;10.10;;;4.90;;
53867;SDS011;41577;47.470;19.080;2022-08-25T01:13:08;8.18;;;4.80;;
53867;SDS011;41577;47.470;19.080;2022-08-25T01:13:26;8.02;;;4.22;;
53867;SDS011;41577;47.470;19.080;2022-08-25T01:13:46;6.63;;;4.28;;
53867;SDS011;41577;47.470;19.080;2022-08-25T01:14:04;9.57;;;4.47;;
53867;SDS011;41577;47.470;19.080;2022-08-25T01:14:19;11.07;;;4.97;;
53867;SDS011;41577;47.470;19.080;2022-08-25T01:14:35;9.00;;;5.13;;
53867;SDS011;41577;47.470;19.080;2022-08-25T01:14:50;9.40;;;5.40;;
53867;SDS011;41577;47.470;19.080;2022-08-25T01:15:05;9.15;;;5.03;;
53867;SDS011;41577;47.470;19.080;2022-08-25T01:15:21;8.88;;;4.85;;
53867;SDS011;41577;47.470;19.080;2022-08-25T01:15:37;13.05;;;5.55;;
53867;SDS011;41577;47.470;19.080;2022-08-25T01:15:52;14.98;;;5.20;;
53867;SDS011;41577;47.470;19.080;2022-08-25T01:16:08;12.65;;;4.70;;
53867;SDS011;41577;47.470;19.080;2022-08-25T01:16:24;9.20;;;5.13;;
53867;SDS011;41577;47.470;19.080;2022-08-25T01:16:39;9.68;;;5.15;;
53867;SDS011;41577;47.470;19.080;2022-08-25T01:16:56;6.53;;;4.47;;
53867;SDS011;41577;47.470;19.080;2022-08-25T01:17:11;6.45;;;4.50;;
53867;SDS011;41577;47.470;19.080;2022-08-25T01:17:31;8.38;;;4.57;;
53867;SDS011;41577;47.470;19.080;2022-08-25T01:17:48;10.27;;;5.28;;
53867;SDS011;41577;47.470;19.080;2022-08-25T01:18:03;17.00;;;5.50;;
53867;SDS011;41577;47.470;19.080;2022-08-25T01:18:17;17.95;;;5.10;;
53867;SDS011;41577;47.470;19.080;2022-08-25T01:18:41;15.43;;;5.03;;
53867;SDS011;41577;47.470;19.080;2022-08-25T01:18:57;17.33;;;5.38;;
53867;SDS011;41577;47.470;19.080;2022-08-25T01:19:13;11.60;;;5.47;;
53867;SDS011;41577;47.470;19.080;2022-08-25T01:19:29;12.57;;;5.60;;
53867;SDS011;41577;47.470;19.080;2022-08-25T01:19:45;14.02;;;5.82;;
53867;SDS011;41577;47.470;19.080;2022-08-25T01:19:58;10.93;;;5.60;;
53867;SDS011;41577;47.470;19.080;2022-08-25T01:20:15;8.02;;;5.07;;
53867;SDS011;41577;47.470;19.080;2022-08-25T01:20:31;7.15;;;4.82;;
53867;SDS011;41577;47.470;19.080;2022-08-25T01:20:49;10.45;;;4.35;;
53867;SDS011;41577;47.470;19.080;2022-08-25T01:21:05;10.45;;;4.65;;
53867;SDS011;41577;47.470;19.080;2022-08-25T01:21:22;10.35;;;5.03;;
53867;SDS011;41577;47.470;19.080;2022-08-25T01:21:39;13.85;;;5.10;;
53867;SDS011;41577;47.470;19.080;2022-08-25T01:21:54;15.10;;;5.10;;
53867;SDS011;41577;47.470;19.080;2022-08-25T01:22:09;13.35;;;5.05;;
53867;SDS011;41577;47.470;19.080;2022-08-25T01:22:24;12.45;;;5.45;;
53867;SDS011;41577;47.470;19.080;2022-08-25T01:22:38;13.60;;;5.88;;
53867;SDS011;41577;47.470;19.080;2022-08-25T01:22:54;12.80;;;5.80;;
53867;SDS011;41577;47.470;19.080;2022-08-25T01:23:08;14.90;;;5.43;;
53867;SDS011;41577;47.470;19.080;2022-08-25T01:23:23;17.35;;;5.43;;
53867;SDS011;41577;47.470;19.080;2022-08-25T01:23:37;12.85;;;5.40;;
53867;SDS011;41577;47.470;19.080;2022-08-25T01:23:52;11.27;;;5.28;;
53867;SDS011;41577;47.470;19.080;2022-08-25T01:24:08;10.88;;;4.88;;
53867;SDS011;41577;47.470;19.080;2022-08-25T01:24:29;10.43;;;4.53;;
53867;SDS011;41577;47.470;19.080;2022-08-25T01:24:51;10.32;;;4.95;;
53867;SDS011;41577;47.470;19.080;2022-08-25T01:25:16;11.18;;;5.10;;
53867;SDS011;41577;47.470;19.080;2022-08-25T01:25:38;8.68;;;4.93;;
53867;SDS011;41577;47.470;19.080;2022-08-25T01:26:00;7.90;;;5.50;;
53867;SDS011;41577;47.470;19.080;2022-08-25T01:26:19;10.00;;;5.13;;
53867;SDS011;41577;47.470;19.080;2022-08-25T01:26:34;9.40;;;4.97;;
53867;SDS011;41577;47.470;19.080;2022-08-25T01:26:49;10.80;;;5.15;;
53867;SDS011;41577;47.470;19.080;2022-08-25T01:27:05;14.35;;;5.25;;
53867;SDS011;41577;47.470;19.080;2022-08-25T01:27:22;11.48;;;5.13;;
53867;SDS011;41577;47.470;19.080;2022-08-25T01:27:36;9.15;;;5.05;;
53867;SDS011;41577;47.470;19.080;2022-08-25T01:27:50;8.77;;;4.90;;
53867;SDS011;41577;47.470;19.080;2022-08-25T01:28:04;12.27;;;5.13;;
53867;SDS011;41577;47.470;19.080;2022-08-25T01:28:18;21.17;;;5.65;;
53867;SDS011;41577;47.470;19.080;2022-08-25T01:28:33;23.75;;;5.78;;
53867;SDS011;41577;47.470;19.080;2022-08-25T01:28:48;12.65;;;4.97;;
53867;SDS011;41577;47.470;19.080;2022-08-25T01:29:21;10.65;;;5.05;;
53867;SDS011;41577;47.470;19.080;2022-08-25T01:29:37;10.60;;;5.00;;
53867;SDS011;41577;47.470;19.080;2022-08-25T01:29:52;12.20;;;5.00;;
53867;SDS011;41577;47.470;19.080;2022-08-25T01:30:07;11.60;;;4.95;;
53867;SDS011;41577;47.470;19.080;2022-08-25T01:30:21;8.30;;;4.75;;
53867;SDS011;41577;47.470;19.080;2022-08-25T01:30:37;9.25;;;4.95;;
53867;SDS011;41577;47.470;19.080;2022-08-25T01:30:53;12.20;;;5.30;;
53867;SDS011;41577;47.470;19.080;2022-08-25T01:31:07;12.02;;;5.35;;
53867;SDS011;41577;47.470;19.080;2022-08-25T01:31:23;11.63;;;5.50;;
53867;SDS011;41577;47.470;19.080;2022-08-25T01:31:37;10.65;;;4.85;;
53867;SDS011;41577;47.470;19.080;2022-08-25T01:31:53;11.20;;;4.70;;
53867;SDS011;41577;47.470;19.080;2022-08-25T01:32:10;10.68;;;5.50;;
53867;SDS011;41577;47.470;19.080;2022-08-25T01:32:26;10.05;;;5.47;;
53867;SDS011;41577;47.470;19.080;2022-08-25T01:32:41;9.45;;;5.28;;
53867;SDS011;41577;47.470;19.080;2022-08-25T01:32:56;10.30;;;5.45;;
53867;SDS011;41577;47.470;19.080;2022-08-25T01:33:10;11.75;;;5.63;;